• Join FlightAware (Why Join?)
  • Login
  • US Flag 
09:53AM EDT


 

Airport Tracker/Info


-or-


 

Live Flight TrackerFlight Track Log ✈ DAL110 ✈ 23-May-2013 ✈ KATL - KLAX

Flight Track Log - Related Links

Times and Time Zones

All times are in EDT time to prevent confusion due to time zone crossing. See the DAL110 flight status page for this flight to view local times or setup timezone preferences in your user account.

Time Position Orientation Groundspeed Altitude Reporting Facility
EDT Latitude Longitude Course Direction KTS MPH feet Rate Location/Type
08:51AM 33.6350 -84.4540 270° West 174 200 1,900  Level FlightAware
08:52AM 33.6350 -84.4790 270° West 206 237 2,500 1,920 Climbing FlightAware
08:52AM 33.6350 -84.5170 270° West 236 272 3,700 2,640 Climbing FlightAware
08:53AM 33.6350 -84.5440 270° West 246 283 4,700 3,180 Climbing FlightAware
08:53AM 33.6350 -84.6000 270° West 257 296 6,900 3,240 Climbing FlightAware
08:53AM 33.6350 -84.6150 270° West 259 298 7,400 2,820 Climbing FlightAware
08:54AM 33.6350 -84.6810 270° West 275 316 9,500 2,100 Climbing FlightAware
08:55AM 33.6350 -84.7180 270° West 309 356 9,900 1,500 Climbing FlightAware
08:55AM 33.6370 -84.8090 272° West 358 412 11,300 2,280 Climbing FlightAware
08:56AM 33.6390 -84.8730 272° West 361 415 13,000 3,000 Climbing FlightAware
08:57AM 33.6420 -84.9770 272° West 370 426 15,600 3,060 Climbing FlightAware
08:57AM 33.6440 -85.0610 272° West 379 436 17,600 3,000 Climbing FlightAware
08:58AM 33.6460 -85.1430 272° West 384 442 19,600 2,880 Climbing FlightAware
08:59AM 33.6480 -85.2420 271° West 401 461 21,700 2,280 Climbing FlightAware
09:00AM 33.6500 -85.3300 272° West 409 471 22,900 1,680 Climbing FlightAware
09:00AM 33.6510 -85.4240 271° West 417 480 24,000 2,160 Climbing FlightAware
09:01AM 33.6530 -85.5190 271° West 427 491 25,800 2,520 Climbing FlightAware
09:02AM 33.6550 -85.6270 271° West 438 504 27,600 2,400 Climbing FlightAware
09:02AM 33.6570 -85.7360 271° West 447 514 29,400 2,400 Climbing FlightAware
09:03AM 33.6590 -85.8360 271° West 453 521 31,000 1,560 Climbing FlightAware
09:04AM 33.6600 -85.9320 271° West 455 524 31,500 360 Climbing FlightAware
09:04AM 33.6610 -86.0180 271° West 455 524 31,500  Level FlightAware
09:05AM 33.6620 -86.1040 271° West 455 524 31,500 1,620 Level FlightAware
09:06AM 33.6640 -86.2620 271° West 448 516 34,000 1,620 Climbing FlightAware
09:07AM 33.6650 -86.3510 271° West 448 516 34,000 1,380 Level FlightAware
09:07AM 33.6670 -86.4710 271° West 444 511 36,000 2,280 Climbing FlightAware
09:08AM 33.6680 -86.5700 271° West 442 509 37,300 1,500 Climbing FlightAware
09:09AM 33.6680 -86.6680 270° West 444 511 38,000 480 Climbing FlightAware
09:09AM 33.6690 -86.7750 271° West 443 510 38,000  Level FlightAware
09:10AM 33.6700 -86.8650 271° West 442 509 38,000  Level FlightAware
09:11AM 33.6670 -86.9590 268° West 440 506 38,000  Level FlightAware
09:11AM 33.6650 -87.0550 269° West 440 506 38,000  Level FlightAware
09:12AM 33.6620 -87.1380 268° West 440 506 38,000  Level FlightAware
09:13AM 33.6590 -87.2420 268° West 440 506 38,000  Level FlightAware
09:14AM 33.6570 -87.3250 268° West 440 506 38,000  Level FlightAware
09:14AM 33.6540 -87.4080 268° West 440 506 38,000  Level FlightAware
09:15AM 33.6520 -87.4910 268° West 440 506 38,000  Level FlightAware
09:16AM 33.6490 -87.5740 268° West 440 506 38,000  Level FlightAware
09:16AM 33.6460 -87.6780 268° West 440 506 38,000  Level FlightAware
09:17AM 33.6450 -87.7400 269° West 440 506 38,000  Level FlightAware
09:18AM 33.6420 -87.8440 268° West 440 506 38,000  Level FlightAware
09:18AM 33.6390 -87.9270 268° West 440 506 38,000  Level FlightAware
09:19AM 33.6370 -88.0100 268° West 440 506 38,000  Level FlightAware
09:20AM 33.6340 -88.1140 268° West 440 506 38,000  Level FlightAware
09:21AM 33.6310 -88.1970 268° West 440 506 38,000  Level FlightAware
09:21AM 33.5839 -88.4397 268° West 441 507 38,000  Level Memphis Center
09:22AM 33.5756 -88.5844 266° West 441 507 38,000  Level Memphis Center
09:23AM 33.5672 -88.7292 266° West 441 507 38,000  Level Memphis Center
09:24AM 33.5625 -88.8564 267° West 441 507 38,000  Level Memphis Center
09:25AM 33.5536 -88.9986 266° West 441 507 38,000  Level Memphis Center
09:26AM 33.5447 -89.1383 266° West 436 502 38,000  Level Memphis Center
09:27AM 33.5358 -89.2956 266° West 431 496 38,000  Level Memphis Center
09:28AM 33.5264 -89.4353 265° West 431 496 38,000  Level Memphis Center
09:29AM 33.5147 -89.5750 264° West 426 490 38,000  Level Memphis Center
09:30AM 33.5053 -89.7144 265° West 426 490 38,000  Level Memphis Center
09:31AM 33.4956 -89.8564 265° West 426 490 38,000  Level Memphis Center
09:32AM 33.4856 -89.9936 265° West 426 490 38,000  Level Memphis Center
09:33AM 33.4753 -90.1331 265° West 426 490 38,000  Level Memphis Center
09:34AM 33.4650 -90.2725 265° West 426 490 38,000  Level Memphis Center
09:35AM 33.4547 -90.4094 265° West 426 490 38,000  Level Memphis Center
09:36AM 33.4419 -90.5489 264° West 426 490 38,000  Level Memphis Center
09:37AM 33.4314 -90.6833 265° West 426 490 38,000  Level Memphis Center
09:38AM 33.4228 -90.8078 265° West 426 490 38,000  Level Memphis Center
09:39AM 33.4117 -90.9444 264° West 426 490 38,000  Level Memphis Center
09:40AM 33.4006 -91.0839 265° West 426 490 38,000  Level Memphis Center
09:41AM 33.3892 -91.2206 264° West 421 484 38,000  Level Memphis Center
09:42AM 33.3797 -91.3547 265° West 421 484 38,000  Level Memphis Center
09:43AM 33.3642 -91.4939 262° West 421 484 38,000  Level Memphis Center
09:45AM 33.3556 -91.7189 267° West 396 456 38,000  Level Fort Worth Center
09:46AM 33.3389 -91.8567 262° West 396 456 38,000  Level Fort Worth Center
09:52AM 33.2591 -92.7132 262° West 418 481 38,000  Level FlightAware ADS-B
09:52AM 33.2516 -92.8049 264° West 417 480 38,000  Level FlightAware ADS-B
09:54AM 33.2416 -92.9711 266° West 415 478 38,000  Level FlightAware ADS-B
09:55AM 33.2242 -93.2246 265° West 415 478 38,000  Level FlightAware ADS-B
09:56AM 33.2190 -93.2950 265° West 415 478 38,000  Level FlightAware
09:56AM 33.2162 -93.3397 266° West 414 476 38,000  Level FlightAware ADS-B
09:58AM 33.2050 -93.4840 265° West 415 478 38,000  Level FlightAware
09:58AM 33.2000 -93.5610 266° West 415 478 38,000  Level FlightAware
09:59AM 33.1890 -93.7150 265° West 413 475 38,000  Level FlightAware
10:00AM 33.1817 -93.8234 265° West 412 474 38,000  Level FlightAware ADS-B
10:01AM 33.1745 -93.9213 265° West 413 475 38,000  Level FlightAware ADS-B
10:01AM 33.1685 -94.0025 265° West 412 474 38,000  Level FlightAware ADS-B
10:02AM 33.1590 -94.1000 263° West 411 473 38,000  Level FlightAware
10:03AM 33.1510 -94.2350 266° West 409 471 38,000  Level FlightAware
10:04AM 33.1440 -94.3240 265° West 410 472 38,000  Level FlightAware
10:04AM 33.1367 -94.4170 265° West 412 474 38,000  Level FlightAware ADS-B
10:05AM 33.1282 -94.5256 265° West 411 473 38,000  Level FlightAware ADS-B
10:05AM 33.1227 -94.5944 265° West 412 474 38,000  Level FlightAware ADS-B
10:06AM 33.1160 -94.6776 265° West 412 474 38,000  Level FlightAware ADS-B
10:07AM 33.1110 -94.7430 265° West 411 473 38,000  Level FlightAware
10:07AM 33.1050 -94.8190 265° West 411 473 38,000  Level FlightAware
10:08AM 33.0950 -94.9370 264° West 412 474 38,000  Level FlightAware
10:09AM 33.0880 -95.0200 264° West 413 475 38,000  Level FlightAware
10:09AM 33.0800 -95.1190 265° West 413 475 38,000  Level FlightAware
10:10AM 33.0710 -95.2230 264° West 414 476 38,000  Level FlightAware
10:11AM 33.0630 -95.3120 264° West 414 476 38,000  Level FlightAware
10:12AM 33.0550 -95.4120 265° West 415 478 38,000  Level FlightAware
10:12AM 33.0470 -95.5030 264° West 415 478 38,000  Level FlightAware
10:13AM 33.0390 -95.5930 264° West 417 480 38,000  Level FlightAware
10:14AM 33.0300 -95.6950 264° West 418 481 38,000  Level FlightAware
10:15AM 33.0190 -95.8220 264° West 420 483 38,000  Level FlightAware
10:15AM 33.0090 -95.9290 264° West 421 484 38,000  Level FlightAware
10:16AM 33.0010 -96.0180 264° West 421 484 38,000  Level FlightAware
10:17AM 32.9920 -96.1110 263° West 422 486 38,000  Level FlightAware
10:17AM 32.9830 -96.2180 264° West 422 486 38,000  Level FlightAware
10:18AM 32.9740 -96.3090 263° West 423 487 38,000  Level FlightAware
10:19AM 32.9643 -96.4135 264° West 426 490 38,000  Level FlightAware ADS-B
10:20AM 32.9503 -96.5554 262° West 427 491 38,000  Level FlightAware ADS-B
10:20AM 32.9491 -96.5649 261° West 429 494 38,000  Level FlightAware ADS-B
10:21AM 32.9340 -96.6690 260° West 432 497 38,000  Level FlightAware
10:21AM 32.9220 -96.7610 261° West 434 499 38,000  Level FlightAware
10:22AM 32.9090 -96.8570 261° West 436 502 38,000  Level FlightAware
10:23AM 32.8940 -96.9660 261° West 436 502 38,000  Level FlightAware
10:23AM 32.8820 -97.0550 261° West 432 497 38,000  Level FlightAware
10:24AM 32.8680 -97.1610 261° West 427 491 38,000  Level FlightAware
10:25AM 32.8540 -97.2600 260° West 426 490 38,000  Level FlightAware
10:25AM 32.8420 -97.3470 261° West 426 490 38,000  Level FlightAware
10:26AM 32.8270 -97.4510 260° West 426 490 38,000  Level FlightAware
10:27AM 32.8138 -97.5477 261° West 38,000  Level FlightAware ADS-B
10:28AM 32.8000 -97.6440 260° West 423 487 38,000  Level FlightAware
10:28AM 32.7860 -97.7450 261° West 422 486 38,000  Level FlightAware
10:29AM 32.7730 -97.8360 260° West 422 486 38,000  Level FlightAware
10:30AM 32.7580 -97.9410 260° West 423 487 38,000  Level FlightAware
10:30AM 32.7440 -98.0360 260° West 424 488 38,000  Level FlightAware
10:31AM 32.7290 -98.1370 260° West 423 487 38,000  Level FlightAware
10:32AM 32.7160 -98.2280 260° West 423 487 38,000  Level FlightAware
10:33AM 32.7020 -98.3230 260° West 423 487 38,000  Level FlightAware
10:33AM 32.6890 -98.4110 260° West 424 488 38,000  Level FlightAware
10:34AM 32.6740 -98.5160 260° West 426 490 38,000  Level FlightAware
10:35AM 32.6600 -98.6090 260° West 428 493 38,000  Level FlightAware
10:35AM 32.6470 -98.6910 259° West 430 495 38,000  Level FlightAware
10:36AM 32.6310 -98.8010 260° West 430 495 38,000  Level FlightAware
10:37AM 32.6140 -98.9110 260° West 430 495 38,000  Level FlightAware
10:37AM 32.6030 -98.9880 260° West 431 496 38,000  Level FlightAware
10:38AM 32.5860 -99.0960 259° West 431 496 38,000  Level FlightAware
10:39AM 32.5700 -99.2020 260° West 431 496 38,000  Level FlightAware
10:40AM 32.5560 -99.2860 259° West 431 496 38,000  Level FlightAware
10:40AM 32.5400 -99.3930 260° West 430 495 38,000  Level FlightAware
10:41AM 32.5250 -99.4870 259° West 430 495 38,000  Level FlightAware
10:42AM 32.5110 -99.5790 260° West 429 494 38,000  Level FlightAware
10:42AM 32.4940 -99.6830 259° West 428 493 38,000  Level FlightAware
10:43AM 32.4800 -99.7710 259° West 427 491 38,000  Level FlightAware
10:44AM 32.4630 -99.8770 259° West 426 490 38,000  Level FlightAware
10:44AM 32.4480 -99.9720 259° West 427 491 38,000  Level FlightAware
10:45AM 32.4340 -100.0620 260° West 427 491 38,000  Level FlightAware
10:46AM 32.4170 -100.1630 259° West 425 489 38,000  Level FlightAware
10:47AM 32.4020 -100.2570 259° West 425 489 38,000  Level FlightAware
10:47AM 32.3850 -100.3580 259° West 425 489 38,000  Level FlightAware
10:48AM 32.3700 -100.4530 259° West 424 488 38,000  Level FlightAware
10:49AM 32.3620 -100.5430 264° West 423 487 38,000  Level FlightAware
10:49AM 32.3570 -100.6460 267° West 423 487 38,000  Level FlightAware
10:50AM 32.3530 -100.7380 267° West 422 486 38,000  Level FlightAware
10:51AM 32.3490 -100.8220 267° West 422 486 38,000  Level FlightAware
10:51AM 32.3440 -100.9150 266° West 422 486 38,000  Level FlightAware
10:52AM 32.3390 -101.0250 267° West 422 486 38,000  Level FlightAware
10:53AM 32.3330 -101.1310 266° West 422 486 38,000  Level FlightAware
10:54AM 32.3280 -101.2230 266° West 421 484 38,000  Level FlightAware
10:54AM 32.3230 -101.3140 266° West 420 483 38,000  Level FlightAware
10:55AM 32.3180 -101.4160 267° West 419 482 38,000  Level FlightAware
10:56AM 32.3130 -101.5070 266° West 419 482 38,000  Level FlightAware
10:56AM 32.3070 -101.6110 266° West 421 484 38,000  Level FlightAware
10:57AM 32.3030 -101.6760 266° West 422 486 38,000  Level FlightAware
10:58AM 32.2980 -101.7700 266° West 422 486 38,000  Level FlightAware
10:58AM 32.2920 -101.8680 266° West 422 486 38,000  Level FlightAware
10:59AM 32.2870 -101.9470 266° West 422 486 38,000  Level FlightAware
11:00AM 32.2830 -102.0250 267° West 422 486 38,000  Level FlightAware
11:00AM 32.2780 -102.1030 266° West 422 486 38,000  Level FlightAware
11:01AM 32.2730 -102.1820 266° West 422 486 38,000  Level FlightAware
11:02AM 32.2680 -102.2790 267° West 422 486 38,000  Level FlightAware
11:03AM 32.2630 -102.3580 266° West 422 486 38,000  Level FlightAware
11:03AM 32.2580 -102.4360 266° West 422 486 38,000  Level FlightAware
11:04AM 32.2540 -102.5140 267° West 422 486 38,000  Level FlightAware
11:05AM 32.2490 -102.5930 266° West 422 486 38,000  Level FlightAware
11:05AM 32.2430 -102.6910 266° West 422 486 38,000  Level FlightAware
11:06AM 32.2390 -102.7690 267° West 422 486 38,000  Level FlightAware
11:07AM 32.2340 -102.8470 266° West 422 486 38,000  Level FlightAware
11:08AM 32.2072 -103.2128 266° West 423 487 38,000  Level Albuquerque Center
11:09AM 32.2111 -103.3519 272° West 423 487 38,000  Level Albuquerque Center
11:10AM 32.2153 -103.4919 272° West 425 489 38,000  Level Albuquerque Center
11:11AM 32.2192 -103.6322 272° West 427 491 38,000  Level Albuquerque Center
11:12AM 32.2214 -103.7711 271° West 426 490 38,000  Level Albuquerque Center
11:13AM 32.2269 -103.9128 273° West 430 495 38,000 -60 Level Albuquerque Center
11:14AM 32.2278 -104.0619 270° West 430 495 37,900  Descending Albuquerque Center
11:15AM 32.2292 -104.1728 271° West 427 491 38,000  Climbing Albuquerque Center
11:16AM 32.2331 -104.3694 271° West 429 494 38,000  Level Albuquerque Center
11:17AM 32.2331 -104.5072 270° West 423 487 38,000 -60 Level Albuquerque Center
11:18AM 32.2353 -104.6472 271° West 426 490 37,900  Descending Albuquerque Center
11:19AM 32.2378 -104.7853 271° West 424 488 38,000  Climbing Albuquerque Center
11:20AM 32.2383 -104.9228 270° West 423 487 37,900 -60 Descending Albuquerque Center
11:21AM 32.2394 -105.0892 270° West 423 487 37,900  Level Albuquerque Center
11:22AM 32.2403 -105.2267 270° West 423 487 37,900  Level Albuquerque Center
11:24AM 32.2414 -105.3614 271° West 419 482 38,000  Climbing Albuquerque Center
11:29AM 32.2430 -106.0780 271° West 429 494 38,000  Level FlightAware
11:29AM 32.2430 -106.1690 270° West 429 494 38,000  Level FlightAware
11:30AM 32.2420 -106.2740 269° West 428 493 38,000  Level FlightAware
11:31AM 32.2420 -106.3700 270° West 427 491 38,000  Level FlightAware
11:31AM 32.2420 -106.4620 270° West 428 493 38,000  Level FlightAware
11:32AM 32.2410 -106.5710 269° West 427 491 38,000  Level FlightAware
11:33AM 32.2460 -106.6990 273° West 429 494 38,000  Level FlightAware
11:34AM 32.2640 -106.7860 284° West 432 497 38,000  Level FlightAware
11:34AM 32.2870 -106.8870 285° West 434 499 38,000  Level FlightAware
11:35AM 32.3070 -106.9740 285° West 434 499 38,000  Level FlightAware
11:36AM 32.3250 -107.0520 285° West 434 499 38,000  Level FlightAware
11:36AM 32.3420 -107.1300 284° West 434 499 38,000  Level FlightAware
11:37AM 32.3640 -107.2270 285° West 434 499 38,000  Level FlightAware
11:38AM 32.3820 -107.3060 285° West 434 499 38,000  Level FlightAware
11:39AM 32.4160 -107.4720 284° West 434 499 38,000  Level FlightAware
11:39AM 32.4360 -107.5620 285° West 434 499 38,000  Level FlightAware
11:40AM 32.4520 -107.6370 284° West 434 499 38,000  Level FlightAware
11:41AM 32.4680 -107.7150 284° West 434 499 38,000  Level FlightAware
11:41AM 32.4890 -107.8130 284° West 434 499 38,000  Level FlightAware
11:42AM 32.5050 -107.8920 284° West 434 499 38,000  Level FlightAware
11:43AM 32.5220 -107.9700 285° West 434 499 38,000  Level FlightAware
11:43AM 32.5380 -108.0490 284° West 434 499 38,000  Level FlightAware
11:44AM 32.5820 -108.2430 285° West 428 493 38,000  Level FlightAware
11:45AM 32.6010 -108.3350 284° West 428 493 38,000  Level FlightAware
11:46AM 32.6200 -108.4250 284° West 428 493 38,000  Level FlightAware
11:46AM 32.6410 -108.5270 284° West 428 493 38,000  Level FlightAware
11:47AM 32.6600 -108.6180 284° West 428 493 38,000  Level FlightAware
11:48AM 32.6790 -108.7080 284° West 429 494 38,000  Level FlightAware
11:48AM 32.7000 -108.8150 283° West 430 495 38,000  Level FlightAware
11:49AM 32.7190 -108.9040 284° West 429 494 38,000  Level FlightAware
11:50AM 32.7380 -108.9980 284° West 429 494 38,000  Level FlightAware
11:50AM 32.7600 -109.0970 285° West 428 493 38,000  Level FlightAware
11:51AM 32.7820 -109.1860 286° West 427 491 38,000  Level FlightAware
11:52AM 32.8100 -109.2890 288° West 428 493 38,000  Level FlightAware
11:53AM 32.8360 -109.3880 287° West 430 495 38,000  Level FlightAware
11:53AM 32.8610 -109.4790 288° West 431 496 38,000  Level FlightAware
11:54AM 32.8840 -109.5690 287° West 431 496 38,000  Level FlightAware
11:55AM 32.9080 -109.6590 288° West 431 496 38,000  Level FlightAware
11:55AM 32.9350 -109.7640 287° West 431 496 38,000  Level FlightAware
11:56AM 32.9580 -109.8530 287° West 430 495 38,000  Level FlightAware
11:57AM 32.9850 -109.9560 287° West 431 496 38,000  Level FlightAware
11:57AM 33.0090 -110.0470 287° West 430 495 38,000  Level FlightAware
11:58AM 33.0340 -110.1470 287° West 431 496 38,000  Level FlightAware
11:59AM 33.0570 -110.2360 287° West 431 496 38,000  Level FlightAware
12:00PM 33.0810 -110.3290 287° West 433 498 38,000  Level FlightAware
12:00PM 33.1040 -110.4210 287° West 433 498 38,000  Level FlightAware
12:01PM 33.1220 -110.4900 287° West 434 499 38,000  Level FlightAware
12:01PM 33.1470 -110.5920 286° West 433 498 38,000  Level FlightAware
12:02PM 33.1700 -110.6820 287° West 434 499 38,000  Level FlightAware
12:03PM 33.1930 -110.7730 287° West 438 504 38,000  Level FlightAware
12:04PM 33.2200 -110.8780 287° West 441 507 38,000  Level FlightAware
12:04PM 33.2430 -110.9720 286° West 444 511 38,000  Level FlightAware
12:05PM 33.2690 -111.0780 286° West 449 517 38,000  Level FlightAware
12:06PM 33.2930 -111.1720 287° West 451 519 38,000  Level FlightAware
12:06PM 33.3170 -111.2710 286° West 454 522 38,000  Level FlightAware
12:07PM 33.3430 -111.3760 287° West 457 526 38,000  Level FlightAware
12:08PM 33.3670 -111.4750 286° West 460 529 38,000  Level FlightAware
12:08PM 33.3940 -111.5840 287° West 460 529 38,000  Level FlightAware
12:09PM 33.4170 -111.6810 286° West 462 532 38,000  Level FlightAware
12:10PM 33.4410 -111.7820 286° West 462 532 38,000  Level FlightAware
12:11PM 33.4680 -111.8910 287° West 461 531 38,000  Level FlightAware
12:11PM 33.4940 -112.0000 286° West 462 532 38,000  Level FlightAware
12:12PM 33.5190 -112.1040 286° West 463 533 38,000  Level FlightAware
12:13PM 33.5420 -112.2000 286° West 465 535 38,000  Level FlightAware
12:13PM 33.5670 -112.3090 285° West 465 535 38,000  Level FlightAware
12:14PM 33.5870 -112.3920 286° West 465 535 38,000  Level FlightAware
12:15PM 33.6160 -112.5150 286° West 465 535 38,000  Level FlightAware
12:15PM 33.6400 -112.6160 286° West 464 534 38,000  Level FlightAware
12:16PM 33.6630 -112.7150 286° West 461 531 38,000  Level FlightAware
12:17PM 33.6870 -112.8190 286° West 460 529 38,000  Level FlightAware
12:17PM 33.7080 -112.9100 286° West 460 529 38,000  Level FlightAware
12:18PM 33.7340 -113.0240 285° West 459 528 38,000  Level FlightAware
12:19PM 33.7590 -113.1320 286° West 459 528 38,000  Level FlightAware
12:20PM 33.7820 -113.2350 285° West 460 529 38,000  Level FlightAware
12:20PM 33.8070 -113.3460 285° West 461 531 38,000  Level FlightAware
12:21PM 33.8310 -113.4480 286° West 461 531 38,000  Level FlightAware
12:22PM 33.8550 -113.5560 285° West 460 529 38,000  Level FlightAware
12:22PM 33.8770 -113.6550 285° West 458 527 38,000  Level FlightAware
12:23PM 33.8990 -113.7520 285° West 457 526 38,000  Level FlightAware
12:24PM 33.9240 -113.8640 285° West 455 524 38,000  Level FlightAware
12:25PM 33.9450 -113.9630 284° West 455 524 38,000  Level FlightAware
12:25PM 33.9690 -114.0680 285° West 454 522 38,000  Level FlightAware
12:26PM 33.9910 -114.1680 285° West 452 520 38,000  Level FlightAware
12:27PM 34.0120 -114.2650 285° West 453 521 38,000  Level FlightAware
12:27PM 34.0330 -114.3660 284° West 453 521 38,000  Level FlightAware
12:28PM 34.0570 -114.4740 285° West 452 520 38,000  Level FlightAware
12:29PM 34.0830 -114.5950 285° West 451 519 38,000  Level FlightAware
12:30PM 34.1000 -114.6780 284° West 451 519 38,000  Level FlightAware
12:30PM 34.1170 -114.7610 284° West 451 519 38,000  Level FlightAware
12:31PM 34.1340 -114.8440 284° West 451 519 38,000  Level FlightAware
12:32PM 34.1550 -114.9480 284° West 451 519 38,000  Level FlightAware
12:32PM 34.1730 -115.0310 285° West 451 519 38,000  Level FlightAware
12:33PM 34.1900 -115.1150 284° West 451 519 38,000  Level FlightAware
12:33PM 34.1090 -115.2690 238° Southwest 448 516 38,000  Level FlightAware
12:34PM 34.1100 -115.3830 271° West 450 518 38,000  Level FlightAware
12:35PM 34.1100 -115.4590 270° West 450 518 38,000  Level FlightAware
12:36PM 34.1110 -115.5900 271° West 449 517 38,000  Level FlightAware
12:36PM 34.1120 -115.6940 271° West 447 514 38,000  Level FlightAware
12:37PM 34.1080 -115.7910 267° West 444 511 38,000 -240 Level FlightAware
12:38PM 34.0930 -115.9020 261° West 448 516 37,700 -1,380 Descending FlightAware
12:38PM 34.0780 -116.0010 260° West 449 517 36,100 -2,760 Descending FlightAware
12:39PM 34.0620 -116.1110 260° West 454 522 33,800 -3,360 Descending FlightAware
12:40PM 34.0460 -116.2150 260° West 457 526 31,400 -3,180 Descending FlightAware
12:40PM 34.0310 -116.3140 260° West 449 517 29,600 -2,580 Descending FlightAware
12:41PM 34.0150 -116.4200 260° West 438 504 27,800 -2,340 Descending FlightAware
12:42PM 34.0040 -116.5100 262° West 428 493 26,300 -2,400 Descending FlightAware
12:42PM 33.9950 -116.6090 264° West 419 482 24,600 -2,520 Descending FlightAware
12:43PM 33.9870 -116.7130 265° West 409 471 22,800 -2,340 Descending FlightAware
12:44PM 33.9800 -116.8040 265° West 402 463 21,300 -2,280 Descending FlightAware
12:45PM 33.9720 -116.9010 264° West 394 453 19,600 -2,280 Descending FlightAware
12:45PM 33.9650 -116.9860 264° West 387 445 18,100 -1,800 Descending FlightAware
12:46PM 33.9580 -117.0700 264° West 365 420 17,200 -780 Descending FlightAware
12:47PM 33.9500 -117.1590 264° West 337 388 17,000 -180 Descending FlightAware
12:47PM 33.9440 -117.2340 265° West 337 388 17,000 -780 Level FlightAware
12:48PM 33.9370 -117.3150 264° West 332 382 15,900 -1,800 Descending FlightAware
12:49PM 33.9460 -117.4160 276° West 332 382 14,000 -1,920 Descending FlightAware
12:50PM 33.9710 -117.4840 294° West 326 375 12,900 -1,620 Descending FlightAware
12:50PM 33.9940 -117.5470 294° West 322 371 11,900 -1,560 Descending FlightAware
12:51PM 34.0110 -117.6210 286° West 273 314 10,700 -1,320 Descending FlightAware
12:52PM 34.0080 -117.6730 266° West 262 302 10,100 -900 Descending FlightAware
12:52PM 34.0040 -117.7170 264° West 264 304 9,700 -960 Descending FlightAware
12:53PM 34.0010 -117.7370 260° West 263 303 9,400 -1,380 Descending FlightAware
12:53PM 33.9970 -117.7790 263° West 262 302 8,800 -1,320 Descending FlightAware
12:53PM 33.9930 -117.8220 264° West 262 302 8,200 -1,320 Descending FlightAware
12:54PM 33.9890 -117.8600 263° West 261 300 7,600 -1,320 Descending FlightAware
12:54PM 33.9850 -117.9030 264° West 261 300 7,000 -1,200 Descending FlightAware
12:55PM 33.9840 -117.9180 265° West 260 299 6,800 -1,380 Descending FlightAware
12:55PM 33.9800 -117.9610 264° West 258 297 6,100 -1,140 Descending FlightAware
12:56PM 33.9750 -118.0040 262° West 250 288 5,700 -840 Descending FlightAware
12:56PM 33.9710 -118.0450 263° West 243 280 5,300 -780 Descending FlightAware
12:56PM 33.9680 -118.0780 264° West 237 273 5,000 -1,020 Descending FlightAware
12:57PM 33.9640 -118.1180 263° West 241 277 4,400 -1,200 Descending FlightAware
12:57PM 33.9620 -118.1370 263° West 244 281 4,100 -1,200 Descending FlightAware
12:58PM 33.9590 -118.1730 264° West 247 284 3,600 -1,320 Descending FlightAware
12:58PM 33.9550 -118.2100 263° West 246 283 2,900 -1,380 Descending FlightAware
12:58PM 33.9530 -118.2310 263° West 232 267 2,600 -1,200 Descending FlightAware
12:59PM 33.9500 -118.2590 263° West 210 242 2,100 -1,020 Descending FlightAware
12:59PM 33.9470 -118.2840 262° West 189 217 1,700 -840 Descending FlightAware
01:00PM 33.9460 -118.2990 265° West 178 205 1,500 -840 Descending FlightAware
01:00PM 33.9430 -118.3240 262° West 149 171 1,100 -780 Descending FlightAware
01:00PM 33.9410 -118.3440 263° West 146 168 800 -720 Descending FlightAware
01:01PM 33.9390 -118.3640 263° West 140 161 500 -720 Descending FlightAware
01:01PM 33.9380 -118.3820 266° West 149 171 200 -360 Descending FlightAware
01:02PM 33.9350 -118.4010 259° West 149 171 200  Level FlightAware